Time;durP1;ratioP1;P1;durP2;ratioP2;P2;SDS_P1;SDS_P2;PMS_P1;PMS_P2;Temp;Humidity;BMP_temperature;BMP_pressure;BME280_temperature;BME280_humidity;BME280_pressure;Samples;Min_cycle;Max_cycle;Signal;HPM_P1;HPM_P2
2021/08/05 00:01:07;;;;;;;2.72;2.53;;;;;;;17.59;69.16;100264.53;4897389;28;128022;-68
2021/08/05 00:03:33;;;;;;;3.22;2.92;;;;;;;17.61;69.09;100256.06;4900863;28;99127;-65
2021/08/05 00:06:00;;;;;;;3.47;3.17;;;;;;;17.62;68.92;100254.94;4899614;28;100298;-68
2021/08/05 00:08:26;;;;;;;3.50;3.20;;;;;;;17.63;69.20;100259.25;4881618;28;121814;-68
2021/08/05 00:10:52;;;;;;;3.13;2.80;;;;;;;17.64;69.21;100252.69;4897040;28;99324;-69
2021/08/05 00:13:19;;;;;;;3.15;2.92;;;;;;;17.64;69.15;100249.97;4898839;28;99522;-68
2021/08/05 00:15:45;;;;;;;3.67;3.17;;;;;;;17.65;69.41;100248.84;4898721;28;127495;-69
2021/08/05 00:18:11;;;;;;;3.50;3.20;;;;;;;17.65;69.24;100246.13;4899071;28;122425;-66
2021/08/05 00:20:37;;;;;;;3.50;3.08;;;;;;;17.65;69.19;100243.41;4899118;28;103241;-66
2021/08/05 00:23:03;;;;;;;3.65;3.25;;;;;;;17.64;69.17;100242.59;4899006;28;126153;-68
2021/08/05 00:25:29;;;;;;;3.30;3.00;;;;;;;17.65;69.32;100240.69;4898712;28;114737;-69
2021/08/05 00:27:55;;;;;;;3.58;2.75;;;;;;;17.63;69.14;100232.81;4901275;28;121372;-66
2021/08/05 00:30:22;;;;;;;3.38;3.08;;;;;;;17.63;69.35;100240.97;4902032;28;127853;-65
2021/08/05 00:32:48;;;;;;;4.35;3.20;;;;;;;17.64;69.34;100233.59;4904001;28;98599;-66
2021/08/05 00:35:14;;;;;;;3.17;2.90;;;;;;;17.63;69.59;100230.09;4901732;28;127310;-66
2021/08/05 00:37:40;;;;;;;3.20;2.90;;;;;;;17.63;69.22;100232.81;4884372;28;123105;-69
2021/08/05 00:40:07;;;;;;;4.15;2.80;;;;;;;17.62;69.13;100233.94;4901384;28;128446;-68
2021/08/05 00:42:33;;;;;;;3.80;3.40;;;;;;;17.61;69.17;100237.78;4903175;28;98466;-66
2021/08/05 00:44:59;;;;;;;4.28;3.67;;;;;;;17.60;69.22;100230.72;4899710;28;126951;-69
2021/08/05 00:47:28;;;;;;;4.60;3.60;;;;;;;17.61;69.33;100231.53;4902120;28;123767;-68
2021/08/05 00:49:55;;;;;;;4.10;3.38;;;;;;;17.58;69.18;100224.00;4902699;28;98381;-68
2021/08/05 00:52:22;;;;;;;4.18;3.50;;;;;;;17.54;69.31;100229.28;4901289;28;98060;-68
2021/08/05 00:54:48;;;;;;;4.05;3.30;;;;;;;17.51;69.47;100224.47;4900559;28;98970;-65
2021/08/05 00:57:14;;;;;;;3.78;3.47;;;;;;;17.48;69.57;100225.09;4901989;28;118080;-68
2021/08/05 00:59:40;;;;;;;4.18;3.88;;;;;;;17.49;69.75;100225.91;4883356;28;128002;-68
2021/08/05 01:02:18;;;;;;;4.35;4.05;;;;;;;17.46;69.55;100229.28;4904836;28;126844;-66
2021/08/05 01:04:46;;;;;;;5.20;4.80;;;;;;;17.46;69.70;100223.84;4902464;28;98142;-68
2021/08/05 01:07:36;;;;;;;5.38;4.85;;;;;;;17.44;69.16;100232.31;4900930;28;98241;-68
2021/08/05 01:10:16;;;;;;;5.97;5.35;;;;;;;17.43;69.75;100219.81;4885013;28;112495;-65
2021/08/05 01:13:07;;;;;;;5.70;5.20;;;;;;;17.39;69.38;100216.13;4900138;28;117392;-65
2021/08/05 01:15:33;;;;;;;6.32;5.30;;;;;;;17.30;70.00;100224.28;4886354;28;97948;-68
2021/08/05 01:18:03;;;;;;;4.68;4.28;;;;;;;17.17;69.91;100217.88;4902460;28;97850;-65
2021/08/05 01:20:29;;;;;;;4.65;4.25;;;;;;;17.12;70.30;100214.47;4883473;28;119671;-68
2021/08/05 01:23:16;;;;;;;4.60;4.20;;;;;;;17.06;69.94;100210.31;4900327;28;100479;-66
2021/08/05 01:25:54;;;;;;;4.75;4.10;;;;;;;17.01;70.03;100208.50;4886000;28;97866;-69
2021/08/05 01:28:20;;;;;;;4.93;4.43;;;;;;;16.99;70.38;100215.41;4900921;28;113533;-68
2021/08/05 01:30:48;;;;;;;5.25;4.55;;;;;;;16.90;70.48;100213.47;4898092;28;126665;-69
2021/08/05 01:33:17;;;;;;;4.82;4.32;;;;;;;16.82;70.43;100202.53;4900961;28;98403;-65
2021/08/05 01:35:43;;;;;;;4.78;4.38;;;;;;;16.78;70.90;100201.53;4880633;28;98056;-66
2021/08/05 01:38:14;;;;;;;5.35;4.40;;;;;;;16.76;71.07;100209.25;4849205;28;123697;-65
2021/08/05 01:40:40;;;;;;;5.50;4.50;;;;;;;16.73;71.10;100202.50;4895299;28;127971;-66
2021/08/05 01:43:06;;;;;;;5.20;4.22;;;;;;;16.73;71.14;100198.94;4866865;28;127592;-69
2021/08/05 01:45:32;;;;;;;4.93;4.53;;;;;;;16.73;71.34;100202.50;4899462;28;114424;-68
2021/08/05 01:47:58;;;;;;;5.22;4.72;;;;;;;16.72;71.20;100198.16;4884946;28;98619;-69
2021/08/05 01:50:24;;;;;;;5.38;4.88;;;;;;;16.71;71.03;100202.00;4883183;28;108901;-69
2021/08/05 01:52:50;;;;;;;7.15;5.00;;;;;;;16.68;71.16;100202.63;4883653;28;126703;-69
2021/08/05 01:55:17;;;;;;;6.15;5.15;;;;;;;16.64;70.99;100194.28;4867672;28;109818;-68
2021/08/05 01:57:43;;;;;;;5.63;5.00;;;;;;;16.58;70.68;100189.28;4901895;28;101227;-66
2021/08/05 02:00:10;;;;;;;5.07;4.57;;;;;;;16.51;71.03;100194.41;4900675;28;108866;-66
2021/08/05 02:02:37;;;;;;;5.07;4.68;;;;;;;16.48;71.27;100189.56;4901815;28;97678;-69
2021/08/05 02:05:10;;;;;;;5.30;4.80;;;;;;;16.44;70.96;100189.41;4901097;28;98232;-66
2021/08/05 02:07:49;;;;;;;5.93;5.13;;;;;;;16.41;71.07;100193.53;4901799;28;97723;-69
2021/08/05 02:10:29;;;;;;;5.90;5.40;;;;;;;16.37;70.90;100192.56;4899761;28;98475;-66
2021/08/05 02:13:04;;;;;;;5.40;4.90;;;;;;;16.38;71.38;100188.72;4864873;28;98656;-66
2021/08/05 02:15:31;;;;;;;6.30;5.80;;;;;;;16.40;71.15;100189.22;4896012;28;98009;-66
2021/08/05 02:17:57;;;;;;;6.20;5.55;;;;;;;16.40;71.66;100193.84;4912402;28;97847;-66
2021/08/05 02:20:23;;;;;;;5.72;5.20;;;;;;;16.39;71.68;100190.34;4895145;28;127609;-66
2021/08/05 02:22:51;;;;;;;5.55;5.00;;;;;;;16.42;71.61;100186.97;4881271;28;127296;-69
2021/08/05 02:25:17;;;;;;;5.80;5.30;;;;;;;16.47;71.77;100193.41;4879606;28;97954;-66
2021/08/05 02:27:43;;;;;;;5.80;5.30;;;;;;;16.51;71.51;100186.22;4903226;28;123660;-68
2021/08/05 02:30:10;;;;;;;6.10;5.47;;;;;;;16.54;71.63;100178.22;4879600;28;98101;-66
2021/08/05 02:32:37;;;;;;;5.70;5.10;;;;;;;16.55;71.66;100188.00;4912443;28;98170;-69
2021/08/05 02:35:04;;;;;;;5.88;5.32;;;;;;;16.57;71.80;100188.47;4895411;28;97766;-68
2021/08/05 02:37:30;;;;;;;6.32;5.20;;;;;;;16.61;71.78;100191.38;4879139;28;114114;-65
2021/08/05 02:39:56;;;;;;;6.93;5.32;;;;;;;16.62;72.06;100190.25;4894853;28;128411;-66
2021/08/05 02:42:22;;;;;;;6.22;5.20;;;;;;;16.63;71.97;100183.72;4881823;28;126610;-68
2021/08/05 02:44:48;;;;;;;7.30;5.47;;;;;;;16.67;72.12;100190.13;4879054;28;126381;-68
2021/08/05 02:47:14;;;;;;;6.00;4.80;;;;;;;16.71;71.69;100182.94;4879174;28;122705;-68
2021/08/05 02:49:40;;;;;;;6.10;5.03;;;;;;;16.73;71.81;100188.06;4898729;28;98697;-68
2021/08/05 02:52:07;;;;;;;5.72;5.13;;;;;;;16.74;71.93;100185.06;4900655;28;128173;-68
2021/08/05 02:54:33;;;;;;;5.53;5.03;;;;;;;16.77;71.60;100178.19;4915195;28;100886;-69
2021/08/05 02:56:59;;;;;;;5.55;5.05;;;;;;;16.78;71.78;100172.44;4898917;28;98033;-68
2021/08/05 02:59:28;;;;;;;6.10;5.13;;;;;;;16.78;71.52;100172.44;4900874;28;105380;-66
2021/08/05 03:01:54;;;;;;;5.40;4.90;;;;;;;16.79;71.68;100171.31;4898507;28;105885;-68
2021/08/05 03:04:20;;;;;;;5.68;5.07;;;;;;;16.80;71.61;100167.47;4900526;28;98712;-68
2021/08/05 03:06:47;;;;;;;6.65;4.75;;;;;;;16.79;71.74;100171.31;4900588;28;106919;-68
2021/08/05 03:09:14;;;;;;;5.68;5.15;;;;;;;16.80;71.49;100172.13;4893856;28;98064;-66
2021/08/05 03:11:40;;;;;;;5.80;5.20;;;;;;;16.80;71.62;100175.63;4895229;28;98703;-65
2021/08/05 03:14:06;;;;;;;5.55;4.80;;;;;;;16.79;71.93;100179.47;4880066;28;122693;-65
2021/08/05 03:16:32;;;;;;;6.22;5.63;;;;;;;16.80;72.03;100177.56;4882132;28;97868;-65
2021/08/05 03:18:58;;;;;;;5.85;5.35;;;;;;;16.80;71.84;100174.84;4881838;28;97983;-65
2021/08/05 03:21:24;;;;;;;7.60;6.00;;;;;;;16.77;71.85;100173.53;4879597;28;98715;-65
2021/08/05 03:23:50;;;;;;;6.28;5.53;;;;;;;16.76;72.04;100168.41;4880708;28;126190;-65
2021/08/05 03:26:16;;;;;;;5.93;5.22;;;;;;;16.76;71.94;100173.88;4880130;28;122901;-68
2021/08/05 03:28:42;;;;;;;6.95;6.30;;;;;;;16.77;72.27;100178.97;4880484;28;97883;-65
2021/08/05 03:31:08;;;;;;;6.72;6.03;;;;;;;16.80;72.34;100170.19;4891807;28;128174;-66
2021/08/05 03:33:34;;;;;;;5.93;5.32;;;;;;;16.81;72.19;100171.78;4899742;28;127496;-68
2021/08/05 03:36:00;;;;;;;6.60;5.82;;;;;;;16.83;72.22;100176.94;4900319;28;97890;-66
2021/08/05 03:38:26;;;;;;;5.90;5.30;;;;;;;16.84;72.04;100176.59;4899630;28;117415;-68
2021/08/05 03:40:52;;;;;;;5.72;5.22;;;;;;;16.85;72.16;100170.03;4896367;28;127769;-66
2021/08/05 03:43:19;;;;;;;5.80;5.28;;;;;;;16.86;71.95;100173.59;4899574;28;123587;-65
2021/08/05 03:45:45;;;;;;;6.60;5.70;;;;;;;16.86;71.81;100179.03;4898060;28;108469;-65
2021/08/05 03:48:11;;;;;;;6.18;5.57;;;;;;;16.86;71.93;100173.59;4899506;28;126986;-65
2021/08/05 03:50:37;;;;;;;6.40;5.80;;;;;;;16.86;71.60;100170.88;4926895;28;109033;-69
2021/08/05 03:53:03;;;;;;;7.53;6.25;;;;;;;16.86;71.78;100173.59;4881337;28;98374;-66
2021/08/05 03:55:29;;;;;;;6.47;5.88;;;;;;;16.85;71.75;100174.69;4880646;28;110467;-69
2021/08/05 03:57:55;;;;;;;7.47;5.57;;;;;;;16.85;72.05;100177.41;4881541;28;99000;-65
2021/08/05 04:00:21;;;;;;;6.22;5.63;;;;;;;16.84;71.89;100176.59;4879832;28;126694;-65
2021/08/05 04:02:48;;;;;;;6.65;5.70;;;;;;;16.86;72.01;100176.31;4882639;28;98113;-65
2021/08/05 04:05:14;;;;;;;6.15;5.60;;;;;;;16.88;71.99;100182.22;4884045;28;97702;-65
2021/08/05 04:07:40;;;;;;;6.38;5.78;;;;;;;16.90;72.14;100186.25;4894998;28;127206;-69
2021/08/05 04:10:07;;;;;;;6.20;5.63;;;;;;;16.90;71.85;100175.34;4903791;28;98279;-65
2021/08/05 04:12:33;;;;;;;6.97;6.35;;;;;;;16.93;71.71;100176.63;4933826;28;98875;-65
2021/08/05 04:14:59;;;;;;;5.82;5.32;;;;;;;16.93;71.77;100173.91;4902907;28;108098;-65
2021/08/05 04:17:25;;;;;;;6.38;5.78;;;;;;;16.93;71.77;100171.19;4902901;28;127776;-69
2021/08/05 04:19:51;;;;;;;7.90;6.40;;;;;;;16.91;71.88;100173.44;4902484;28;122242;-66
2021/08/05 04:22:17;;;;;;;6.25;5.75;;;;;;;16.90;71.71;100175.34;4886867;28;127450;-69
2021/08/05 04:24:43;;;;;;;6.07;5.47;;;;;;;16.89;71.86;100167.47;4884501;28;98009;-69
2021/08/05 04:27:09;;;;;;;6.75;6.05;;;;;;;16.88;71.71;100163.97;4882826;28;128039;-69
2021/08/05 04:29:35;;;;;;;6.22;5.63;;;;;;;16.87;71.78;100156.91;4900220;28;127575;-65
2021/08/05 04:32:01;;;;;;;6.05;5.55;;;;;;;16.87;71.85;100159.66;4900481;28;127211;-68
2021/08/05 04:34:27;;;;;;;7.47;6.60;;;;;;;16.89;72.10;100151.16;4917775;28;97729;-65
2021/08/05 04:36:53;;;;;;;8.57;7.65;;;;;;;16.92;72.18;100158.69;4932591;28;127672;-65
2021/08/05 04:39:20;;;;;;;7.82;7.18;;;;;;;16.95;72.29;100146.38;4899974;28;126876;-69
2021/08/05 04:41:46;;;;;;;7.70;7.00;;;;;;;16.97;72.04;100146.84;4903414;28;97943;-69
2021/08/05 04:44:12;;;;;;;7.97;7.22;;;;;;;17.00;72.46;100157.09;4903509;28;97983;-69
2021/08/05 04:46:38;;;;;;;8.57;7.55;;;;;;;17.06;72.02;100150.41;4902657;28;98519;-66
2021/08/05 04:49:04;;;;;;;8.85;7.60;;;;;;;17.11;71.89;100150.25;4895971;28;126631;-65
2021/08/05 04:51:32;;;;;;;8.10;7.40;;;;;;;17.18;71.82;100153.31;4896385;28;124478;-65
2021/08/05 04:54:02;;;;;;;8.48;7.68;;;;;;;17.23;71.88;100147.69;4883544;28;97723;-65
2021/08/05 04:56:29;;;;;;;8.35;7.40;;;;;;;17.32;71.53;100139.53;4883913;28;98317;-69
2021/08/05 04:58:55;;;;;;;8.68;7.75;;;;;;;17.40;71.31;100147.69;4913576;28;98966;-69
2021/08/05 05:01:22;;;;;;;8.10;7.35;;;;;;;17.47;71.23;100141.75;4882134;28;112756;-69
2021/08/05 05:03:49;;;;;;;8.70;7.85;;;;;;;17.53;71.28;100135.03;4913173;28;122438;-65
2021/08/05 05:06:16;;;;;;;7.50;6.80;;;;;;;17.59;70.56;100132.94;4912519;28;97955;-68
2021/08/05 05:08:42;;;;;;;8.55;7.75;;;;;;;17.65;70.74;100137.13;4883206;28;98622;-69
2021/08/05 05:11:08;;;;;;;7.97;7.28;;;;;;;17.74;70.52;100142.56;4884279;28;97856;-66
2021/08/05 05:13:34;;;;;;;8.85;7.53;;;;;;;17.78;70.48;100144.34;4882451;28;111571;-65
2021/08/05 05:16:00;;;;;;;9.02;8.30;;;;;;;17.80;70.30;100144.81;4863165;28;127805;-65
2021/08/05 05:18:26;;;;;;;8.93;8.13;;;;;;;17.86;70.41;100140.78;4913365;28;127819;-65
2021/08/05 05:20:52;;;;;;;8.05;7.35;;;;;;;17.93;70.27;100137.59;4912972;28;113917;-65
2021/08/05 05:23:19;;;;;;;8.60;7.78;;;;;;;17.99;69.84;100135.47;4880494;28;121932;-69
2021/08/05 05:25:45;;;;;;;8.30;7.50;;;;;;;18.05;69.81;100134.97;4896637;28;106749;-69
2021/08/05 05:28:11;;;;;;;8.18;7.47;;;;;;;18.11;69.53;100132.88;4895889;28;124882;-69
2021/08/05 05:30:37;;;;;;;8.60;7.72;;;;;;;18.20;69.34;100135.59;4913579;28;98031;-69
2021/08/05 05:33:04;;;;;;;7.97;7.28;;;;;;;18.31;69.30;100128.63;4916105;28;98240;-69
2021/08/05 05:35:30;;;;;;;8.05;7.30;;;;;;;18.45;68.98;100129.22;4901333;28;98140;-69
2021/08/05 05:37:57;;;;;;;8.50;7.75;;;;;;;18.60;68.71;100136.84;4932562;28;100085;-65
2021/08/05 05:40:23;;;;;;;8.23;7.53;;;;;;;18.77;68.08;100127.78;4916206;28;115210;-69
2021/08/05 05:42:49;;;;;;;8.23;7.43;;;;;;;18.94;67.70;100123.34;4900902;28;102001;-69
2021/08/05 05:45:16;;;;;;;7.65;7.05;;;;;;;19.11;67.20;100121.31;4901101;28;110170;-69
2021/08/05 05:47:42;;;;;;;8.02;7.30;;;;;;;19.29;66.87;100126.63;4902314;28;98314;-66
2021/08/05 05:50:09;;;;;;;8.65;7.50;;;;;;;19.48;66.50;100124.22;4901645;28;98541;-69
2021/08/05 05:52:36;;;;;;;7.40;6.70;;;;;;;19.68;65.87;100122.63;4895643;28;98115;-66
2021/08/05 05:55:02;;;;;;;7.55;6.85;;;;;;;19.89;65.27;100124.53;4881966;28;108722;-70
2021/08/05 05:57:28;;;;;;;7.75;7.05;;;;;;;20.14;64.85;100122.63;4883398;28;110453;-70
2021/08/05 05:59:54;;;;;;;7.25;6.65;;;;;;;20.44;63.78;100126.00;4881241;28;126563;-66
2021/08/05 06:02:20;;;;;;;6.57;6.03;;;;;;;20.66;63.43;100125.53;4881811;28;122527;-69
2021/08/05 06:04:46;;;;;;;6.45;5.82;;;;;;;20.87;62.61;100121.88;4882469;28;98684;-70
2021/08/05 06:07:12;;;;;;;6.63;6.03;;;;;;;21.07;62.17;100129.94;4882088;28;127951;-69
2021/08/05 06:09:38;;;;;;;6.50;6.00;;;;;;;21.43;60.99;100133.75;4880139;28;116327;-66
2021/08/05 06:12:04;;;;;;;6.43;5.85;;;;;;;21.73;60.37;100142.44;4897070;28;97880;-69
2021/08/05 06:14:30;;;;;;;6.13;5.50;;;;;;;22.06;59.70;100146.84;4896197;28;98500;-66
2021/08/05 06:16:56;;;;;;;6.22;5.70;;;;;;;22.22;59.33;100144.94;4900668;28;106468;-66
2021/08/05 06:19:22;;;;;;;7.18;6.13;;;;;;;22.33;58.88;100142.47;4901195;28;125660;-69
2021/08/05 06:21:48;;;;;;;6.47;5.93;;;;;;;22.39;58.72;100149.28;4901044;28;120867;-69
2021/08/05 06:24:14;;;;;;;6.55;5.95;;;;;;;22.47;58.22;100145.53;4896261;28;98639;-66
2021/08/05 06:26:41;;;;;;;6.43;5.78;;;;;;;22.49;58.42;100154.25;4900533;28;98298;-69
2021/08/05 06:29:10;;;;;;;6.22;5.63;;;;;;;22.47;58.65;100134.56;4900917;28;98130;-69
2021/08/05 06:31:36;;;;;;;5.70;5.18;;;;;;;22.52;58.36;100142.56;4900798;28;122857;-70
2021/08/05 06:34:03;;;;;;;5.97;5.47;;;;;;;22.60;58.17;100132.53;4902097;28;99362;-69
2021/08/05 06:36:29;;;;;;;6.00;5.50;;;;;;;22.77;57.68;100136.84;4900939;28;114400;-69
2021/08/05 06:38:55;;;;;;;6.10;5.50;;;;;;;23.07;57.21;100139.09;4900678;28;114037;-69
2021/08/05 06:41:22;;;;;;;5.35;4.95;;;;;;;23.27;56.15;100133.28;4901135;28;113011;-66
2021/08/05 06:43:48;;;;;;;6.57;5.40;;;;;;;23.46;55.06;100134.41;4932489;28;98448;-70
2021/08/05 06:46:14;;;;;;;5.78;5.25;;;;;;;23.64;55.00;100137.53;4898649;28;126013;-69
2021/08/05 06:48:40;;;;;;;6.00;5.50;;;;;;;23.66;54.67;100141.56;4900068;28;126317;-69
2021/08/05 06:51:08;;;;;;;6.25;5.75;;;;;;;23.71;54.63;100140.47;4900226;28;118524;-70
2021/08/05 06:53:34;;;;;;;7.32;6.63;;;;;;;23.82;54.05;100138.72;4900206;28;98829;-66
2021/08/05 06:56:00;;;;;;;7.57;6.80;;;;;;;23.87;53.74;100138.41;4899729;28;128668;-66
2021/08/05 06:58:29;;;;;;;7.50;6.70;;;;;;;23.91;54.40;100135.72;4898473;28;127015;-69
2021/08/05 07:00:55;;;;;;;8.20;7.40;;;;;;;23.96;53.39;100138.97;4915400;28;98012;-69
2021/08/05 07:03:21;;;;;;;7.68;7.07;;;;;;;23.98;53.66;100136.66;4931481;28;109215;-69
2021/08/05 07:05:47;;;;;;;7.85;7.15;;;;;;;23.98;53.72;100133.91;4900262;28;98434;-66
2021/08/05 07:08:13;;;;;;;6.82;6.22;;;;;;;23.95;53.09;100134.63;4914579;28;125336;-69
2021/08/05 07:10:39;;;;;;;7.00;6.30;;;;;;;23.94;53.28;100133.03;4900300;28;97869;-69
2021/08/05 07:13:05;;;;;;;6.95;6.35;;;;;;;23.93;53.00;100131.47;4930763;28;127687;-66
2021/08/05 07:15:32;;;;;;;6.68;6.03;;;;;;;24.02;53.50;100133.97;4900489;28;100287;-66
2021/08/05 07:17:58;;;;;;;7.28;6.50;;;;;;;24.18;53.27;100137.41;4900213;28;98168;-69
2021/08/05 07:20:24;;;;;;;7.20;6.45;;;;;;;24.39;52.41;100136.97;4899686;28;123327;-69
2021/08/05 07:22:50;;;;;;;6.55;6.00;;;;;;;24.66;51.51;100129.53;4901091;28;98983;-70
2021/08/05 07:25:17;;;;;;;6.75;6.13;;;;;;;24.88;51.00;100136.19;4899959;28;128179;-66
2021/08/05 07:27:44;;;;;;;6.75;6.15;;;;;;;25.05;50.45;100131.28;4898672;28;98002;-66
2021/08/05 07:30:12;;;;;;;6.63;5.88;;;;;;;25.14;50.49;100127.09;4900101;28;108202;-66
2021/08/05 07:32:38;;;;;;;6.28;5.65;;;;;;;25.24;49.96;100135.91;4930919;28;100142;-66
2021/08/05 07:35:05;;;;;;;6.13;5.60;;;;;;;25.34;49.48;100113.16;4913637;28;127812;-69
2021/08/05 07:37:31;;;;;;;6.15;5.55;;;;;;;25.50;49.30;100124.78;4913375;28;108477;-66
2021/08/05 07:39:57;;;;;;;6.55;5.95;;;;;;;25.58;49.19;100120.13;4899808;28;112833;-71
2021/08/05 07:42:23;;;;;;;6.50;5.90;;;;;;;25.78;49.19;100126.31;4899132;28;123835;-70
2021/08/05 07:44:49;;;;;;;6.18;5.38;;;;;;;25.87;49.38;100118.53;4898200;28;114729;-70
2021/08/05 07:47:15;;;;;;;7.65;5.90;;;;;;;26.13;48.45;100121.16;4899769;28;126502;-69
2021/08/05 07:49:41;;;;;;;7.45;6.10;;;;;;;26.28;47.92;100110.22;4898361;28;97899;-69
2021/08/05 07:52:09;;;;;;;5.88;5.38;;;;;;;26.52;47.80;100115.16;4900271;28;98564;-66
2021/08/05 07:54:36;;;;;;;6.25;5.43;;;;;;;26.98;46.97;100113.88;4900225;28;98518;-69
2021/08/05 07:57:02;;;;;;;5.80;4.38;;;;;;;27.61;45.71;100110.59;4930556;28;98159;-69
2021/08/05 07:59:28;;;;;;;5.45;4.95;;;;;;;28.13;44.51;100102.78;4914602;28;108576;-67
2021/08/05 08:01:54;;;;;;;5.68;5.18;;;;;;;28.78;43.49;100109.13;4898840;28;126292;-66
2021/08/05 08:04:20;;;;;;;5.78;5.18;;;;;;;29.83;41.32;100104.75;4899714;28;120935;-70
2021/08/05 08:06:46;;;;;;;4.90;4.28;;;;;;;29.73;41.67;100105.59;4899162;28;101497;-66
2021/08/05 08:09:12;;;;;;;4.93;4.43;;;;;;;29.32;41.55;100100.66;4899032;28;123938;-70
2021/08/05 08:11:38;;;;;;;5.00;4.55;;;;;;;29.25;41.43;100095.13;4893578;28;127201;-66
2021/08/05 08:14:04;;;;;;;4.60;4.03;;;;;;;29.33;41.70;100102.22;4879613;28;127015;-69
2021/08/05 08:16:30;;;;;;;5.78;3.88;;;;;;;29.40;40.96;100099.44;4880039;28;101870;-70
2021/08/05 08:18:56;;;;;;;4.22;3.80;;;;;;;29.46;40.94;100103.34;4886881;28;122899;-70
2021/08/05 08:21:22;;;;;;;4.15;3.67;;;;;;;30.36;39.45;100097.22;4895479;28;125740;-66
2021/08/05 08:23:48;;;;;;;4.55;3.50;;;;;;;31.36;37.12;100091.41;4898407;28;126165;-70
2021/08/05 08:26:15;;;;;;;4.88;3.45;;;;;;;30.81;38.48;100092.41;4897902;28;127612;-66
2021/08/05 08:28:41;;;;;;;5.35;3.58;;;;;;;30.40;38.88;100081.31;4898208;28;97839;-66
2021/08/05 08:31:07;;;;;;;3.92;3.55;;;;;;;32.11;35.97;100092.31;4899520;28;108374;-66
2021/08/05 08:33:33;;;;;;;4.47;3.33;;;;;;;33.92;33.48;100081.56;4899209;28;98129;-66
2021/08/05 08:35:59;;;;;;;4.88;3.65;;;;;;;34.37;32.38;100078.84;4898983;28;98189;-66
2021/08/05 08:38:26;;;;;;;3.80;2.55;;;;;;;35.51;31.25;100079.69;4899585;28;97720;-69
2021/08/05 08:40:55;;;;;;;4.18;3.17;;;;;;;35.69;30.16;100077.13;4898578;28;127099;-70
2021/08/05 08:43:21;;;;;;;4.32;3.42;;;;;;;34.75;31.32;100074.69;4899243;28;108849;-69
2021/08/05 08:45:51;;;;;;;6.03;2.83;;;;;;;33.84;32.33;100066.97;4898258;28;126963;-69
2021/08/05 08:48:17;;;;;;;4.55;2.85;;;;;;;33.33;33.68;100062.97;4900491;28;98319;-66
2021/08/05 08:50:43;;;;;;;3.28;3.00;;;;;;;33.64;32.75;100055.06;4883580;28;126277;-66
2021/08/05 08:53:11;;;;;;;4.40;2.85;;;;;;;34.25;32.17;100065.59;4902376;28;98077;-69
2021/08/05 08:55:41;;;;;;;3.15;2.35;;;;;;;34.27;31.97;100068.75;4902568;28;98404;-66
2021/08/05 08:58:07;;;;;;;4.43;3.08;;;;;;;33.06;33.26;100060.34;4900646;28;98151;-70
2021/08/05 09:00:36;;;;;;;3.53;2.40;;;;;;;32.23;34.07;100052.72;4899835;28;101079;-70
2021/08/05 09:03:05;;;;;;;2.83;2.40;;;;;;;31.81;34.98;100054.94;4900711;28;98940;-66
2021/08/05 09:05:31;;;;;;;3.47;2.17;;;;;;;32.10;34.93;100055.28;4901375;28;98016;-70
2021/08/05 09:08:00;;;;;;;3.78;2.40;;;;;;;31.52;35.56;100054.59;4900810;28;100020;-67
2021/08/05 09:10:27;;;;;;;3.53;2.90;;;;;;;30.74;35.82;100048.81;4902468;28;98007;-70
2021/08/05 09:12:57;;;;;;;3.92;2.40;;;;;;;30.30;37.48;100042.09;4902544;28;98718;-70
2021/08/05 09:15:45;;;;;;;2.30;2.10;;;;;;;30.17;37.27;100038.22;4902439;28;98436;-67
2021/08/05 09:18:35;;;;;;;6.72;2.42;;;;;;;30.38;36.94;100036.44;4902594;28;97779;-70
2021/08/05 09:21:26;;;;;;;3.03;2.38;;;;;;;30.42;37.28;100043.56;4892933;28;99162;-66
2021/08/05 09:24:07;;;;;;;2.50;2.30;;;;;;;31.54;36.07;100039.03;4900180;28;98829;-70
2021/08/05 09:26:44;;;;;;;2.95;2.65;;;;;;;32.09;34.98;100039.78;4901669;28;97992;-66
2021/08/05 09:29:14;;;;;;;2.58;2.38;;;;;;;31.59;35.72;100037.78;4898535;28;98201;-70
2021/08/05 09:31:45;;;;;;;3.97;2.80;;;;;;;31.10;36.07;100030.91;4901732;28;99118;-66
2021/08/05 09:34:14;;;;;;;2.70;2.50;;;;;;;31.39;35.41;100032.09;4902274;28;98908;-66
2021/08/05 09:36:40;;;;;;;3.75;2.40;;;;;;;31.21;36.31;100031.56;4901645;28;98050;-66
2021/08/05 09:39:24;;;;;;;4.05;3.03;;;;;;;30.83;37.08;100019.72;4901761;28;97825;-70
2021/08/05 09:42:06;;;;;;;6.75;2.80;;;;;;;30.49;37.23;100017.66;4899935;28;98371;-66
2021/08/05 09:44:38;;;;;;;3.47;3.10;;;;;;;30.25;37.60;100019.50;4885021;28;98405;-70
2021/08/05 09:47:10;;;;;;;3.22;2.90;;;;;;;29.98;37.46;100008.22;4901350;28;98745;-66
2021/08/05 09:49:40;;;;;;;2.80;2.50;;;;;;;29.82;37.61;100011.53;4900940;28;98244;-70
2021/08/05 09:52:10;;;;;;;3.42;2.42;;;;;;;29.96;36.84;100008.63;4901603;28;98275;-70
2021/08/05 09:54:43;;;;;;;3.75;2.50;;;;;;;30.14;36.89;100011.22;4900937;28;97765;-70
2021/08/05 09:57:11;;;;;;;3.83;2.50;;;;;;;30.04;36.80;100012.94;4902143;28;97888;-66
2021/08/05 10:00:02;;;;;;;3.97;2.80;;;;;;;30.07;37.26;100014.88;4901169;28;98133;-66
2021/08/05 10:02:48;;;;;;;2.97;2.45;;;;;;;30.00;37.25;100009.38;4901963;28;99433;-66
2021/08/05 10:05:17;;;;;;;3.22;2.03;;;;;;;30.04;36.40;100009.34;4901179;28;113397;-66
2021/08/05 10:07:52;;;;;;;3.30;2.47;;;;;;;29.72;37.49;100009.63;4901490;28;98172;-70
2021/08/05 10:10:28;;;;;;;2.85;2.55;;;;;;;29.51;37.30;100010.53;4899781;28;97935;-66
2021/08/05 10:12:57;;;;;;;2.70;1.92;;;;;;;29.93;36.46;100012.22;4901250;28;99017;-70
2021/08/05 10:15:24;;;;;;;2.33;1.90;;;;;;;30.37;35.46;100004.31;4901243;28;99026;-67
2021/08/05 10:17:52;;;;;;;3.17;2.63;;;;;;;31.24;34.70;100008.44;4901393;28;97854;-70
2021/08/05 10:20:19;;;;;;;3.85;2.33;;;;;;;31.91;34.47;100006.69;4899088;28;98029;-70
2021/08/05 10:22:45;;;;;;;5.82;2.47;;;;;;;31.38;34.60;100005.47;4882841;28;111598;-70
2021/08/05 10:25:14;;;;;;;3.13;2.20;;;;;;;30.95;35.56;99999.69;4897321;28;128063;-70
2021/08/05 10:27:40;;;;;;;3.10;2.15;;;;;;;30.56;35.47;99995.34;4899266;28;98774;-66
2021/08/05 10:30:10;;;;;;;2.50;1.63;;;;;;;30.23;35.57;99985.81;4900740;28;109538;-70
2021/08/05 10:32:36;;;;;;;1.90;1.50;;;;;;;30.04;35.95;99985.16;4901938;28;98281;-70
2021/08/05 10:35:03;;;;;;;1.92;1.30;;;;;;;30.00;36.17;99978.03;4898819;28;98767;-67
2021/08/05 10:37:29;;;;;;;2.83;1.90;;;;;;;29.82;36.33;99992.09;4900218;28;110371;-70
2021/08/05 10:39:56;;;;;;;2.60;1.60;;;;;;;29.40;36.70;99990.38;4898229;28;98224;-66
2021/08/05 10:42:22;;;;;;;2.65;1.50;;;;;;;29.30;37.32;99978.94;4883015;28;98380;-69
2021/08/05 10:44:49;;;;;;;2.95;2.65;;;;;;;29.08;38.45;99974.72;4900870;28;106467;-69
2021/08/05 10:47:29;;;;;;;3.80;2.80;;;;;;;29.67;37.92;99976.72;4901801;28;97686;-70
2021/08/05 10:49:57;;;;;;;3.42;2.90;;;;;;;29.82;37.07;99973.44;4882299;28;99221;-67
2021/08/05 10:52:38;;;;;;;2.67;2.47;;;;;;;29.94;37.42;99977.69;4915386;28;98438;-67
2021/08/05 10:55:21;;;;;;;3.07;2.20;;;;;;;29.24;38.33;99974.22;4901443;28;98607;-66
2021/08/05 10:58:08;;;;;;;2.40;2.20;;;;;;;28.67;39.07;99966.19;4901380;28;97827;-67
2021/08/05 11:00:49;;;;;;;1.75;1.65;;;;;;;27.95;39.64;99966.31;4885560;28;98008;-69
2021/08/05 11:03:45;;;;;;;2.20;1.75;;;;;;;27.51;40.34;99964.72;4898352;28;99994;-67
2021/08/05 11:06:23;;;;;;;2.65;1.55;;;;;;;27.24;41.22;99969.03;4900358;28;97982;-69
2021/08/05 11:08:49;;;;;;;1.67;1.58;;;;;;;27.14;42.03;99970.56;4900372;28;98097;-70
2021/08/05 11:11:21;;;;;;;2.35;1.63;;;;;;;27.02;42.13;99968.94;4898538;28;97923;-66
2021/08/05 11:14:17;;;;;;;2.35;2.05;;;;;;;26.88;42.19;99977.16;4900743;28;98288;-66
2021/08/05 11:17:01;;;;;;;3.83;2.13;;;;;;;26.57;42.88;99973.91;4890968;28;98373;-67
2021/08/05 11:19:32;;;;;;;2.20;2.00;;;;;;;26.30;43.54;99981.63;4900392;28;98185;-69
2021/08/05 11:22:18;;;;;;;3.70;1.77;;;;;;;26.05;43.91;99975.13;4900793;28;97873;-66
2021/08/05 11:24:44;;;;;;;1.98;1.40;;;;;;;25.82;43.92;99976.16;4884893;28;98729;-69
2021/08/05 11:27:20;;;;;;;2.65;1.23;;;;;;;25.67;44.21;99969.69;4898446;28;98144;-69